sensor_id;sensor_type;location;lat;lon;timestamp;P1;durP1;ratioP1;P2;durP2;ratioP2
41966;SDS011;27656;53.068;8.818;2023-06-10T00:00:48;10.83;;;5.33;;
41966;SDS011;27656;53.068;8.818;2023-06-10T00:03:14;16.27;;;6.00;;
41966;SDS011;27656;53.068;8.818;2023-06-10T00:05:41;13.47;;;5.77;;
41966;SDS011;27656;53.068;8.818;2023-06-10T00:08:08;12.47;;;4.20;;
41966;SDS011;27656;53.068;8.818;2023-06-10T00:10:35;8.03;;;4.33;;
41966;SDS011;27656;53.068;8.818;2023-06-10T00:13:02;12.17;;;4.60;;
41966;SDS011;27656;53.068;8.818;2023-06-10T00:15:30;13.43;;;4.50;;
41966;SDS011;27656;53.068;8.818;2023-06-10T00:17:57;14.30;;;4.13;;
41966;SDS011;27656;53.068;8.818;2023-06-10T00:20:23;11.10;;;4.90;;
41966;SDS011;27656;53.068;8.818;2023-06-10T00:22:52;14.00;;;4.83;;
41966;SDS011;27656;53.068;8.818;2023-06-10T00:25:18;17.83;;;5.83;;
41966;SDS011;27656;53.068;8.818;2023-06-10T00:27:45;12.83;;;5.00;;
41966;SDS011;27656;53.068;8.818;2023-06-10T00:30:11;16.10;;;5.60;;
41966;SDS011;27656;53.068;8.818;2023-06-10T00:32:38;10.23;;;4.73;;
41966;SDS011;27656;53.068;8.818;2023-06-10T00:35:05;11.13;;;4.70;;
41966;SDS011;27656;53.068;8.818;2023-06-10T00:37:33;13.33;;;5.03;;
41966;SDS011;27656;53.068;8.818;2023-06-10T00:40:05;8.57;;;4.30;;
41966;SDS011;27656;53.068;8.818;2023-06-10T00:42:32;15.20;;;5.10;;
41966;SDS011;27656;53.068;8.818;2023-06-10T00:44:58;17.73;;;5.43;;
41966;SDS011;27656;53.068;8.818;2023-06-10T00:47:25;14.73;;;5.57;;
41966;SDS011;27656;53.068;8.818;2023-06-10T00:49:52;12.67;;;5.93;;
41966;SDS011;27656;53.068;8.818;2023-06-10T00:52:19;16.13;;;6.10;;
41966;SDS011;27656;53.068;8.818;2023-06-10T00:54:48;12.37;;;5.10;;
41966;SDS011;27656;53.068;8.818;2023-06-10T00:57:15;13.33;;;5.50;;
41966;SDS011;27656;53.068;8.818;2023-06-10T00:59:42;15.17;;;5.03;;
41966;SDS011;27656;53.068;8.818;2023-06-10T01:02:10;10.60;;;4.30;;
41966;SDS011;27656;53.068;8.818;2023-06-10T01:04:36;10.57;;;5.07;;
41966;SDS011;27656;53.068;8.818;2023-06-10T01:09:49;11.97;;;4.87;;
41966;SDS011;27656;53.068;8.818;2023-06-10T01:12:27;11.50;;;5.47;;
41966;SDS011;27656;53.068;8.818;2023-06-10T01:14:58;14.27;;;4.63;;
41966;SDS011;27656;53.068;8.818;2023-06-10T01:17:25;11.83;;;5.07;;
41966;SDS011;27656;53.068;8.818;2023-06-10T01:19:53;13.67;;;5.23;;
41966;SDS011;27656;53.068;8.818;2023-06-10T01:22:24;16.93;;;5.30;;
41966;SDS011;27656;53.068;8.818;2023-06-10T01:24:55;10.77;;;4.47;;
41966;SDS011;27656;53.068;8.818;2023-06-10T01:27:29;11.27;;;5.10;;
41966;SDS011;27656;53.068;8.818;2023-06-10T01:29:58;12.37;;;5.27;;
41966;SDS011;27656;53.068;8.818;2023-06-10T01:32:33;19.80;;;5.47;;
41966;SDS011;27656;53.068;8.818;2023-06-10T01:35:05;12.20;;;4.90;;
41966;SDS011;27656;53.068;8.818;2023-06-10T01:37:32;13.77;;;5.23;;
41966;SDS011;27656;53.068;8.818;2023-06-10T01:39:59;14.57;;;5.73;;
41966;SDS011;27656;53.068;8.818;2023-06-10T01:42:26;11.23;;;5.10;;
41966;SDS011;27656;53.068;8.818;2023-06-10T01:44:53;13.43;;;5.87;;
41966;SDS011;27656;53.068;8.818;2023-06-10T01:47:19;11.90;;;5.10;;
41966;SDS011;27656;53.068;8.818;2023-06-10T01:49:46;14.07;;;6.13;;
41966;SDS011;27656;53.068;8.818;2023-06-10T01:52:13;15.47;;;6.30;;
41966;SDS011;27656;53.068;8.818;2023-06-10T01:54:40;13.10;;;5.30;;
41966;SDS011;27656;53.068;8.818;2023-06-10T01:57:06;10.53;;;5.00;;
41966;SDS011;27656;53.068;8.818;2023-06-10T01:59:33;14.07;;;5.57;;
41966;SDS011;27656;53.068;8.818;2023-06-10T02:01:59;15.17;;;5.27;;
41966;SDS011;27656;53.068;8.818;2023-06-10T02:04:26;12.00;;;5.50;;
41966;SDS011;27656;53.068;8.818;2023-06-10T02:06:52;14.33;;;5.70;;
41966;SDS011;27656;53.068;8.818;2023-06-10T02:09:19;11.17;;;5.27;;
41966;SDS011;27656;53.068;8.818;2023-06-10T02:11:46;13.03;;;5.87;;
41966;SDS011;27656;53.068;8.818;2023-06-10T02:14:12;13.57;;;5.60;;
41966;SDS011;27656;53.068;8.818;2023-06-10T02:16:39;14.03;;;6.10;;
41966;SDS011;27656;53.068;8.818;2023-06-10T02:19:06;15.13;;;5.60;;
41966;SDS011;27656;53.068;8.818;2023-06-10T02:21:33;14.37;;;5.47;;
41966;SDS011;27656;53.068;8.818;2023-06-10T02:24:00;13.10;;;5.80;;
41966;SDS011;27656;53.068;8.818;2023-06-10T02:26:27;16.00;;;6.80;;
41966;SDS011;27656;53.068;8.818;2023-06-10T02:28:53;14.50;;;5.47;;
41966;SDS011;27656;53.068;8.818;2023-06-10T02:31:21;10.70;;;5.23;;
41966;SDS011;27656;53.068;8.818;2023-06-10T02:33:47;14.90;;;5.90;;
41966;SDS011;27656;53.068;8.818;2023-06-10T02:36:14;16.73;;;5.77;;
41966;SDS011;27656;53.068;8.818;2023-06-10T02:38:41;11.30;;;5.77;;
41966;SDS011;27656;53.068;8.818;2023-06-10T02:41:08;13.27;;;6.07;;
41966;SDS011;27656;53.068;8.818;2023-06-10T02:43:34;13.47;;;6.00;;
41966;SDS011;27656;53.068;8.818;2023-06-10T02:46:01;15.40;;;6.87;;
41966;SDS011;27656;53.068;8.818;2023-06-10T02:48:28;14.70;;;5.80;;
41966;SDS011;27656;53.068;8.818;2023-06-10T02:50:54;18.83;;;7.23;;
41966;SDS011;27656;53.068;8.818;2023-06-10T02:53:22;14.50;;;7.33;;
41966;SDS011;27656;53.068;8.818;2023-06-10T02:55:48;14.97;;;7.47;;
41966;SDS011;27656;53.068;8.818;2023-06-10T02:58:15;19.13;;;7.47;;
41966;SDS011;27656;53.068;8.818;2023-06-10T03:00:41;14.40;;;7.77;;
41966;SDS011;27656;53.068;8.818;2023-06-10T03:03:09;16.90;;;8.23;;
41966;SDS011;27656;53.068;8.818;2023-06-10T03:05:36;21.30;;;7.73;;
41966;SDS011;27656;53.068;8.818;2023-06-10T03:08:03;14.97;;;8.07;;
41966;SDS011;27656;53.068;8.818;2023-06-10T03:10:29;16.63;;;7.50;;
41966;SDS011;27656;53.068;8.818;2023-06-10T03:12:58;13.57;;;7.57;;
41966;SDS011;27656;53.068;8.818;2023-06-10T03:15:24;16.07;;;7.87;;
41966;SDS011;27656;53.068;8.818;2023-06-10T03:17:51;15.03;;;7.53;;
41966;SDS011;27656;53.068;8.818;2023-06-10T03:20:17;14.67;;;7.33;;
41966;SDS011;27656;53.068;8.818;2023-06-10T03:22:44;18.50;;;8.30;;
41966;SDS011;27656;53.068;8.818;2023-06-10T03:25:11;16.27;;;7.23;;
41966;SDS011;27656;53.068;8.818;2023-06-10T03:27:41;15.67;;;7.80;;
41966;SDS011;27656;53.068;8.818;2023-06-10T03:30:08;12.30;;;7.60;;
41966;SDS011;27656;53.068;8.818;2023-06-10T03:32:35;15.50;;;7.60;;
41966;SDS011;27656;53.068;8.818;2023-06-10T03:35:02;14.60;;;7.50;;
41966;SDS011;27656;53.068;8.818;2023-06-10T03:37:29;14.77;;;7.50;;
41966;SDS011;27656;53.068;8.818;2023-06-10T03:39:56;14.73;;;7.43;;
41966;SDS011;27656;53.068;8.818;2023-06-10T03:42:22;16.07;;;8.47;;
41966;SDS011;27656;53.068;8.818;2023-06-10T03:44:49;15.80;;;8.70;;
41966;SDS011;27656;53.068;8.818;2023-06-10T03:47:15;14.93;;;8.80;;
41966;SDS011;27656;53.068;8.818;2023-06-10T03:49:42;17.50;;;8.77;;
41966;SDS011;27656;53.068;8.818;2023-06-10T03:52:08;19.50;;;9.47;;
41966;SDS011;27656;53.068;8.818;2023-06-10T03:54:35;17.37;;;8.37;;
41966;SDS011;27656;53.068;8.818;2023-06-10T03:57:01;16.63;;;8.17;;
41966;SDS011;27656;53.068;8.818;2023-06-10T03:59:29;13.77;;;7.23;;
41966;SDS011;27656;53.068;8.818;2023-06-10T04:01:55;14.57;;;6.90;;
41966;SDS011;27656;53.068;8.818;2023-06-10T04:04:22;17.23;;;7.43;;
41966;SDS011;27656;53.068;8.818;2023-06-10T04:06:49;14.00;;;7.17;;
41966;SDS011;27656;53.068;8.818;2023-06-10T04:09:16;10.97;;;6.13;;
41966;SDS011;27656;53.068;8.818;2023-06-10T04:11:43;11.63;;;6.33;;
41966;SDS011;27656;53.068;8.818;2023-06-10T04:14:09;17.33;;;7.13;;
41966;SDS011;27656;53.068;8.818;2023-06-10T04:16:36;16.53;;;6.10;;
41966;SDS011;27656;53.068;8.818;2023-06-10T04:19:02;10.83;;;6.07;;
41966;SDS011;27656;53.068;8.818;2023-06-10T04:21:29;16.67;;;7.13;;
41966;SDS011;27656;53.068;8.818;2023-06-10T04:23:55;11.30;;;6.57;;
41966;SDS011;27656;53.068;8.818;2023-06-10T04:26:22;13.90;;;6.57;;
41966;SDS011;27656;53.068;8.818;2023-06-10T04:28:48;11.00;;;7.03;;
41966;SDS011;27656;53.068;8.818;2023-06-10T04:31:15;10.80;;;5.83;;
41966;SDS011;27656;53.068;8.818;2023-06-10T04:33:42;13.97;;;6.50;;
41966;SDS011;27656;53.068;8.818;2023-06-10T04:36:08;15.50;;;6.80;;
41966;SDS011;27656;53.068;8.818;2023-06-10T04:38:35;12.40;;;6.53;;
41966;SDS011;27656;53.068;8.818;2023-06-10T04:41:01;12.13;;;6.80;;
41966;SDS011;27656;53.068;8.818;2023-06-10T04:43:29;13.53;;;6.80;;
41966;SDS011;27656;53.068;8.818;2023-06-10T04:45:56;13.77;;;6.50;;
41966;SDS011;27656;53.068;8.818;2023-06-10T04:48:23;12.00;;;6.10;;
41966;SDS011;27656;53.068;8.818;2023-06-10T04:50:50;12.03;;;6.20;;
41966;SDS011;27656;53.068;8.818;2023-06-10T04:53:16;11.37;;;6.63;;
41966;SDS011;27656;53.068;8.818;2023-06-10T04:55:43;10.80;;;6.10;;
41966;SDS011;27656;53.068;8.818;2023-06-10T04:58:10;16.47;;;6.40;;
41966;SDS011;27656;53.068;8.818;2023-06-10T05:00:36;10.43;;;5.67;;
41966;SDS011;27656;53.068;8.818;2023-06-10T05:03:03;10.87;;;5.73;;
41966;SDS011;27656;53.068;8.818;2023-06-10T05:05:30;10.90;;;5.77;;
41966;SDS011;27656;53.068;8.818;2023-06-10T05:07:56;15.40;;;6.53;;
41966;SDS011;27656;53.068;8.818;2023-06-10T05:10:23;13.03;;;7.00;;
41966;SDS011;27656;53.068;8.818;2023-06-10T05:12:49;12.57;;;6.23;;
41966;SDS011;27656;53.068;8.818;2023-06-10T05:15:16;15.87;;;6.80;;
41966;SDS011;27656;53.068;8.818;2023-06-10T05:17:42;13.90;;;6.40;;
41966;SDS011;27656;53.068;8.818;2023-06-10T05:20:09;14.60;;;6.47;;
41966;SDS011;27656;53.068;8.818;2023-06-10T05:22:36;9.93;;;5.97;;
41966;SDS011;27656;53.068;8.818;2023-06-10T05:25:02;11.17;;;6.53;;
41966;SDS011;27656;53.068;8.818;2023-06-10T05:27:29;10.37;;;6.57;;
41966;SDS011;27656;53.068;8.818;2023-06-10T05:29:55;12.60;;;6.90;;
41966;SDS011;27656;53.068;8.818;2023-06-10T05:32:22;11.47;;;6.13;;
41966;SDS011;27656;53.068;8.818;2023-06-10T05:34:49;9.10;;;5.97;;
41966;SDS011;27656;53.068;8.818;2023-06-10T05:37:15;14.53;;;6.53;;
41966;SDS011;27656;53.068;8.818;2023-06-10T05:39:42;11.37;;;6.80;;
41966;SDS011;27656;53.068;8.818;2023-06-10T05:42:08;12.03;;;6.07;;
41966;SDS011;27656;53.068;8.818;2023-06-10T05:44:35;11.80;;;6.47;;
41966;SDS011;27656;53.068;8.818;2023-06-10T05:47:01;12.50;;;6.00;;
41966;SDS011;27656;53.068;8.818;2023-06-10T05:49:28;15.20;;;6.57;;
41966;SDS011;27656;53.068;8.818;2023-06-10T05:51:54;11.20;;;6.37;;
41966;SDS011;27656;53.068;8.818;2023-06-10T05:54:22;16.10;;;6.13;;
41966;SDS011;27656;53.068;8.818;2023-06-10T05:56:49;11.63;;;5.97;;
41966;SDS011;27656;53.068;8.818;2023-06-10T05:59:15;12.77;;;6.10;;
41966;SDS011;27656;53.068;8.818;2023-06-10T06:01:42;12.70;;;6.17;;
41966;SDS011;27656;53.068;8.818;2023-06-10T06:04:08;12.30;;;5.87;;
41966;SDS011;27656;53.068;8.818;2023-06-10T06:06:35;16.47;;;6.70;;
41966;SDS011;27656;53.068;8.818;2023-06-10T06:09:01;11.63;;;6.50;;
41966;SDS011;27656;53.068;8.818;2023-06-10T06:11:28;13.73;;;6.37;;
41966;SDS011;27656;53.068;8.818;2023-06-10T06:13:55;11.10;;;6.20;;
41966;SDS011;27656;53.068;8.818;2023-06-10T06:16:22;9.20;;;5.47;;
41966;SDS011;27656;53.068;8.818;2023-06-10T06:18:48;10.13;;;5.13;;
41966;SDS011;27656;53.068;8.818;2023-06-10T06:21:15;14.57;;;5.77;;
41966;SDS011;27656;53.068;8.818;2023-06-10T06:23:41;13.47;;;5.30;;
41966;SDS011;27656;53.068;8.818;2023-06-10T06:26:08;12.07;;;5.40;;
41966;SDS011;27656;53.068;8.818;2023-06-10T06:28:34;11.10;;;5.10;;
41966;SDS011;27656;53.068;8.818;2023-06-10T06:31:01;10.37;;;5.00;;
41966;SDS011;27656;53.068;8.818;2023-06-10T06:33:27;9.57;;;5.20;;
41966;SDS011;27656;53.068;8.818;2023-06-10T06:35:54;11.40;;;5.40;;
41966;SDS011;27656;53.068;8.818;2023-06-10T06:38:20;11.93;;;5.43;;
41966;SDS011;27656;53.068;8.818;2023-06-10T06:40:47;13.23;;;6.20;;
41966;SDS011;27656;53.068;8.818;2023-06-10T06:43:13;10.63;;;5.10;;
41966;SDS011;27656;53.068;8.818;2023-06-10T06:45:40;10.60;;;5.40;;
41966;SDS011;27656;53.068;8.818;2023-06-10T06:48:06;8.27;;;5.20;;
41966;SDS011;27656;53.068;8.818;2023-06-10T06:50:33;8.90;;;5.40;;
41966;SDS011;27656;53.068;8.818;2023-06-10T06:52:59;10.43;;;5.53;;
41966;SDS011;27656;53.068;8.818;2023-06-10T06:55:26;9.17;;;4.83;;
41966;SDS011;27656;53.068;8.818;2023-06-10T06:57:52;9.47;;;5.80;;
41966;SDS011;27656;53.068;8.818;2023-06-10T07:00:19;9.90;;;5.37;;
41966;SDS011;27656;53.068;8.818;2023-06-10T07:02:45;10.37;;;5.03;;
41966;SDS011;27656;53.068;8.818;2023-06-10T07:05:12;11.67;;;5.47;;
41966;SDS011;27656;53.068;8.818;2023-06-10T07:07:39;8.57;;;5.13;;
41966;SDS011;27656;53.068;8.818;2023-06-10T07:10:05;12.17;;;5.10;;
41966;SDS011;27656;53.068;8.818;2023-06-10T07:12:32;15.07;;;5.97;;
41966;SDS011;27656;53.068;8.818;2023-06-10T07:14:59;12.47;;;5.33;;
41966;SDS011;27656;53.068;8.818;2023-06-10T07:17:25;9.20;;;4.77;;
41966;SDS011;27656;53.068;8.818;2023-06-10T07:19:53;11.97;;;5.20;;
41966;SDS011;27656;53.068;8.818;2023-06-10T07:22:23;7.03;;;4.57;;
41966;SDS011;27656;53.068;8.818;2023-06-10T07:24:50;10.80;;;5.60;;
41966;SDS011;27656;53.068;8.818;2023-06-10T07:27:18;8.33;;;4.70;;
41966;SDS011;27656;53.068;8.818;2023-06-10T07:29:44;7.93;;;4.43;;
41966;SDS011;27656;53.068;8.818;2023-06-10T07:32:11;9.13;;;4.57;;
41966;SDS011;27656;53.068;8.818;2023-06-10T07:34:37;11.20;;;5.40;;
41966;SDS011;27656;53.068;8.818;2023-06-10T07:37:04;11.33;;;5.43;;
41966;SDS011;27656;53.068;8.818;2023-06-10T07:39:31;14.43;;;4.80;;
41966;SDS011;27656;53.068;8.818;2023-06-10T07:41:57;7.50;;;4.67;;
41966;SDS011;27656;53.068;8.818;2023-06-10T07:44:24;10.37;;;5.20;;
41966;SDS011;27656;53.068;8.818;2023-06-10T07:46:50;11.27;;;5.27;;
41966;SDS011;27656;53.068;8.818;2023-06-10T07:49:17;12.73;;;5.27;;
41966;SDS011;27656;53.068;8.818;2023-06-10T07:51:43;10.53;;;4.73;;
41966;SDS011;27656;53.068;8.818;2023-06-10T07:54:11;11.47;;;5.37;;
41966;SDS011;27656;53.068;8.818;2023-06-10T07:56:38;7.93;;;5.10;;
41966;SDS011;27656;53.068;8.818;2023-06-10T07:59:05;10.27;;;4.50;;
41966;SDS011;27656;53.068;8.818;2023-06-10T08:01:31;13.47;;;4.90;;
41966;SDS011;27656;53.068;8.818;2023-06-10T08:03:59;11.97;;;4.50;;
41966;SDS011;27656;53.068;8.818;2023-06-10T08:06:25;14.10;;;4.30;;
41966;SDS011;27656;53.068;8.818;2023-06-10T08:08:52;8.40;;;4.10;;
41966;SDS011;27656;53.068;8.818;2023-06-10T08:11:19;9.97;;;4.50;;
41966;SDS011;27656;53.068;8.818;2023-06-10T08:13:46;8.63;;;4.97;;
41966;SDS011;27656;53.068;8.818;2023-06-10T08:16:13;9.07;;;4.27;;
41966;SDS011;27656;53.068;8.818;2023-06-10T08:18:40;10.27;;;4.60;;
41966;SDS011;27656;53.068;8.818;2023-06-10T08:21:06;15.27;;;4.50;;
41966;SDS011;27656;53.068;8.818;2023-06-10T08:23:33;8.50;;;4.67;;
41966;SDS011;27656;53.068;8.818;2023-06-10T08:25:59;12.33;;;4.50;;
41966;SDS011;27656;53.068;8.818;2023-06-10T08:28:26;16.87;;;4.60;;
41966;SDS011;27656;53.068;8.818;2023-06-10T08:30:52;10.70;;;4.27;;
41966;SDS011;27656;53.068;8.818;2023-06-10T08:33:22;7.77;;;4.23;;
41966;SDS011;27656;53.068;8.818;2023-06-10T08:35:49;12.33;;;4.37;;
41966;SDS011;27656;53.068;8.818;2023-06-10T08:38:15;8.30;;;3.90;;
41966;SDS011;27656;53.068;8.818;2023-06-10T08:40:42;12.63;;;4.60;;
41966;SDS011;27656;53.068;8.818;2023-06-10T08:43:17;7.83;;;3.70;;
41966;SDS011;27656;53.068;8.818;2023-06-10T08:45:47;6.60;;;4.27;;
41966;SDS011;27656;53.068;8.818;2023-06-10T08:48:14;12.83;;;4.30;;
41966;SDS011;27656;53.068;8.818;2023-06-10T08:50:43;10.70;;;4.27;;
41966;SDS011;27656;53.068;8.818;2023-06-10T08:53:10;9.17;;;3.73;;
41966;SDS011;27656;53.068;8.818;2023-06-10T08:55:43;8.50;;;4.13;;
41966;SDS011;27656;53.068;8.818;2023-06-10T08:58:11;12.03;;;4.50;;
41966;SDS011;27656;53.068;8.818;2023-06-10T09:00:39;7.73;;;3.77;;
41966;SDS011;27656;53.068;8.818;2023-06-10T09:03:05;9.63;;;4.40;;
41966;SDS011;27656;53.068;8.818;2023-06-10T09:05:35;6.47;;;4.13;;
41966;SDS011;27656;53.068;8.818;2023-06-10T09:08:02;8.77;;;3.67;;
41966;SDS011;27656;53.068;8.818;2023-06-10T09:10:32;9.30;;;3.80;;
41966;SDS011;27656;53.068;8.818;2023-06-10T09:12:58;10.20;;;4.13;;
41966;SDS011;27656;53.068;8.818;2023-06-10T09:15:25;8.67;;;3.80;;
41966;SDS011;27656;53.068;8.818;2023-06-10T09:17:51;9.57;;;3.97;;
41966;SDS011;27656;53.068;8.818;2023-06-10T09:20:18;9.07;;;4.00;;
41966;SDS011;27656;53.068;8.818;2023-06-10T09:22:45;9.17;;;4.13;;
41966;SDS011;27656;53.068;8.818;2023-06-10T09:25:12;9.83;;;3.77;;
41966;SDS011;27656;53.068;8.818;2023-06-10T09:27:46;10.10;;;4.13;;
41966;SDS011;27656;53.068;8.818;2023-06-10T09:30:23;8.57;;;4.10;;
41966;SDS011;27656;53.068;8.818;2023-06-10T09:32:54;7.07;;;4.70;;
41966;SDS011;27656;53.068;8.818;2023-06-10T09:35:25;8.03;;;3.97;;
41966;SDS011;27656;53.068;8.818;2023-06-10T09:37:53;7.73;;;3.80;;
41966;SDS011;27656;53.068;8.818;2023-06-10T09:40:20;10.77;;;3.90;;
41966;SDS011;27656;53.068;8.818;2023-06-10T09:42:46;10.60;;;3.77;;
41966;SDS011;27656;53.068;8.818;2023-06-10T09:45:19;11.17;;;4.30;;
41966;SDS011;27656;53.068;8.818;2023-06-10T09:47:47;8.17;;;3.93;;
41966;SDS011;27656;53.068;8.818;2023-06-10T09:50:15;10.73;;;4.03;;
41966;SDS011;27656;53.068;8.818;2023-06-10T09:52:42;9.73;;;4.10;;
41966;SDS011;27656;53.068;8.818;2023-06-10T09:55:08;6.23;;;3.47;;
41966;SDS011;27656;53.068;8.818;2023-06-10T09:57:37;8.27;;;3.20;;
41966;SDS011;27656;53.068;8.818;2023-06-10T10:00:04;7.33;;;3.37;;
41966;SDS011;27656;53.068;8.818;2023-06-10T10:02:31;7.50;;;4.03;;
41966;SDS011;27656;53.068;8.818;2023-06-10T10:05:02;11.13;;;3.60;;
41966;SDS011;27656;53.068;8.818;2023-06-10T10:07:29;11.77;;;3.50;;
41966;SDS011;27656;53.068;8.818;2023-06-10T10:09:56;6.83;;;3.50;;
41966;SDS011;27656;53.068;8.818;2023-06-10T10:12:22;9.47;;;3.70;;
41966;SDS011;27656;53.068;8.818;2023-06-10T10:14:49;6.87;;;3.20;;
41966;SDS011;27656;53.068;8.818;2023-06-10T10:17:16;11.70;;;3.80;;
41966;SDS011;27656;53.068;8.818;2023-06-10T10:19:48;10.93;;;3.63;;
41966;SDS011;27656;53.068;8.818;2023-06-10T10:22:22;20.73;;;3.83;;
41966;SDS011;27656;53.068;8.818;2023-06-10T10:24:52;5.63;;;3.20;;
41966;SDS011;27656;53.068;8.818;2023-06-10T10:27:26;7.13;;;3.40;;
41966;SDS011;27656;53.068;8.818;2023-06-10T10:29:54;6.27;;;2.90;;
41966;SDS011;27656;53.068;8.818;2023-06-10T10:32:24;6.30;;;3.27;;
41966;SDS011;27656;53.068;8.818;2023-06-10T10:35:03;8.53;;;3.50;;
41966;SDS011;27656;53.068;8.818;2023-06-10T10:37:35;6.63;;;2.80;;
41966;SDS011;27656;53.068;8.818;2023-06-10T10:40:02;6.87;;;3.00;;
41966;SDS011;27656;53.068;8.818;2023-06-10T10:42:29;8.23;;;2.80;;
41966;SDS011;27656;53.068;8.818;2023-06-10T10:44:56;7.90;;;3.23;;
41966;SDS011;27656;53.068;8.818;2023-06-10T10:47:23;5.43;;;2.70;;
41966;SDS011;27656;53.068;8.818;2023-06-10T10:49:55;10.70;;;3.10;;
41966;SDS011;27656;53.068;8.818;2023-06-10T10:52:25;8.13;;;3.50;;
41966;SDS011;27656;53.068;8.818;2023-06-10T10:54:53;6.97;;;3.00;;
41966;SDS011;27656;53.068;8.818;2023-06-10T10:57:21;12.77;;;3.13;;
41966;SDS011;27656;53.068;8.818;2023-06-10T11:02:18;7.23;;;2.97;;
41966;SDS011;27656;53.068;8.818;2023-06-10T11:04:58;6.43;;;2.80;;
41966;SDS011;27656;53.068;8.818;2023-06-10T11:07:24;8.10;;;3.10;;
41966;SDS011;27656;53.068;8.818;2023-06-10T11:12:41;7.00;;;3.40;;
41966;SDS011;27656;53.068;8.818;2023-06-10T11:15:08;8.83;;;3.00;;
41966;SDS011;27656;53.068;8.818;2023-06-10T11:17:35;6.93;;;2.90;;
41966;SDS011;27656;53.068;8.818;2023-06-10T11:20:02;8.30;;;2.57;;
41966;SDS011;27656;53.068;8.818;2023-06-10T11:22:29;5.30;;;2.50;;
41966;SDS011;27656;53.068;8.818;2023-06-10T11:24:55;6.30;;;2.43;;
41966;SDS011;27656;53.068;8.818;2023-06-10T11:27:25;7.67;;;2.47;;
41966;SDS011;27656;53.068;8.818;2023-06-10T11:32:30;6.22;;;2.50;;
41966;SDS011;27656;53.068;8.818;2023-06-10T11:34:58;4.57;;;2.80;;
41966;SDS011;27656;53.068;8.818;2023-06-10T11:37:25;7.13;;;2.70;;
41966;SDS011;27656;53.068;8.818;2023-06-10T11:39:55;6.55;;;2.97;;
41966;SDS011;27656;53.068;8.818;2023-06-10T11:42:22;8.52;;;2.30;;
41966;SDS011;27656;53.068;8.818;2023-06-10T11:44:49;7.32;;;2.47;;
41966;SDS011;27656;53.068;8.818;2023-06-10T11:47:17;7.32;;;2.60;;
41966;SDS011;27656;53.068;8.818;2023-06-10T11:49:49;6.95;;;2.47;;
41966;SDS011;27656;53.068;8.818;2023-06-10T11:52:31;5.35;;;2.60;;
41966;SDS011;27656;53.068;8.818;2023-06-10T11:54:59;5.80;;;2.50;;
41966;SDS011;27656;53.068;8.818;2023-06-10T11:57:26;6.78;;;2.53;;
41966;SDS011;27656;53.068;8.818;2023-06-10T11:59:52;4.00;;;2.20;;
41966;SDS011;27656;53.068;8.818;2023-06-10T12:02:19;6.68;;;2.35;;
41966;SDS011;27656;53.068;8.818;2023-06-10T12:04:45;4.82;;;2.80;;
41966;SDS011;27656;53.068;8.818;2023-06-10T12:07:18;7.97;;;2.80;;
41966;SDS011;27656;53.068;8.818;2023-06-10T12:09:46;5.18;;;2.80;;
41966;SDS011;27656;53.068;8.818;2023-06-10T12:12:12;5.07;;;2.30;;
41966;SDS011;27656;53.068;8.818;2023-06-10T12:14:55;4.28;;;2.47;;
41966;SDS011;27656;53.068;8.818;2023-06-10T12:19:57;5.72;;;2.70;;
41966;SDS011;27656;53.068;8.818;2023-06-10T12:22:24;5.40;;;2.08;;
41966;SDS011;27656;53.068;8.818;2023-06-10T12:24:58;6.40;;;2.90;;
41966;SDS011;27656;53.068;8.818;2023-06-10T12:27:29;5.32;;;2.60;;
41966;SDS011;27656;53.068;8.818;2023-06-10T12:29:57;7.53;;;2.60;;
41966;SDS011;27656;53.068;8.818;2023-06-10T12:32:40;5.00;;;2.40;;
41966;SDS011;27656;53.068;8.818;2023-06-10T12:35:12;5.85;;;2.63;;
41966;SDS011;27656;53.068;8.818;2023-06-10T12:37:40;8.13;;;2.50;;
41966;SDS011;27656;53.068;8.818;2023-06-10T12:40:09;5.28;;;2.50;;
41966;SDS011;27656;53.068;8.818;2023-06-10T12:42:36;5.53;;;2.42;;
41966;SDS011;27656;53.068;8.818;2023-06-10T12:45:03;7.82;;;2.70;;
41966;SDS011;27656;53.068;8.818;2023-06-10T12:47:33;6.47;;;2.90;;
41966;SDS011;27656;53.068;8.818;2023-06-10T12:50:01;3.80;;;2.20;;
41966;SDS011;27656;53.068;8.818;2023-06-10T12:52:29;6.32;;;2.60;;
41966;SDS011;27656;53.068;8.818;2023-06-10T12:54:55;8.07;;;2.80;;
41966;SDS011;27656;53.068;8.818;2023-06-10T12:57:22;4.30;;;2.40;;
41966;SDS011;27656;53.068;8.818;2023-06-10T12:59:49;7.03;;;2.50;;
41966;SDS011;27656;53.068;8.818;2023-06-10T13:02:26;7.25;;;2.90;;
41966;SDS011;27656;53.068;8.818;2023-06-10T13:04:53;5.03;;;2.85;;
41966;SDS011;27656;53.068;8.818;2023-06-10T13:07:20;6.38;;;3.03;;
41966;SDS011;27656;53.068;8.818;2023-06-10T13:09:49;5.68;;;2.78;;
41966;SDS011;27656;53.068;8.818;2023-06-10T13:12:15;6.38;;;2.80;;
41966;SDS011;27656;53.068;8.818;2023-06-10T13:14:52;4.20;;;2.80;;
41966;SDS011;27656;53.068;8.818;2023-06-10T13:17:20;5.72;;;3.10;;
41966;SDS011;27656;53.068;8.818;2023-06-10T13:19:47;8.38;;;3.00;;
41966;SDS011;27656;53.068;8.818;2023-06-10T13:22:14;5.43;;;2.80;;
41966;SDS011;27656;53.068;8.818;2023-06-10T13:24:41;5.13;;;3.00;;
41966;SDS011;27656;53.068;8.818;2023-06-10T13:27:09;5.72;;;2.85;;
41966;SDS011;27656;53.068;8.818;2023-06-10T13:29:36;5.78;;;2.38;;
41966;SDS011;27656;53.068;8.818;2023-06-10T13:32:02;5.18;;;2.90;;
41966;SDS011;27656;53.068;8.818;2023-06-10T13:34:29;6.60;;;3.10;;
41966;SDS011;27656;53.068;8.818;2023-06-10T13:36:56;6.70;;;3.22;;
41966;SDS011;27656;53.068;8.818;2023-06-10T13:39:22;7.45;;;3.00;;
41966;SDS011;27656;53.068;8.818;2023-06-10T13:41:49;5.90;;;2.80;;
41966;SDS011;27656;53.068;8.818;2023-06-10T13:44:16;6.63;;;2.80;;
41966;SDS011;27656;53.068;8.818;2023-06-10T13:46:43;5.25;;;3.13;;
41966;SDS011;27656;53.068;8.818;2023-06-10T13:49:12;6.70;;;3.00;;
41966;SDS011;27656;53.068;8.818;2023-06-10T13:51:38;7.30;;;3.17;;
41966;SDS011;27656;53.068;8.818;2023-06-10T13:54:05;7.15;;;3.58;;
41966;SDS011;27656;53.068;8.818;2023-06-10T13:56:32;7.90;;;3.78;;
41966;SDS011;27656;53.068;8.818;2023-06-10T13:59:03;6.53;;;3.42;;
41966;SDS011;27656;53.068;8.818;2023-06-10T14:01:30;5.13;;;2.88;;
41966;SDS011;27656;53.068;8.818;2023-06-10T14:03:57;5.95;;;3.55;;
41966;SDS011;27656;53.068;8.818;2023-06-10T14:06:23;7.15;;;3.55;;
41966;SDS011;27656;53.068;8.818;2023-06-10T14:08:50;8.00;;;3.95;;
41966;SDS011;27656;53.068;8.818;2023-06-10T14:11:17;7.97;;;3.13;;
41966;SDS011;27656;53.068;8.818;2023-06-10T14:13:43;8.52;;;3.70;;
41966;SDS011;27656;53.068;8.818;2023-06-10T14:16:10;9.52;;;4.10;;
41966;SDS011;27656;53.068;8.818;2023-06-10T14:18:36;5.53;;;3.53;;
41966;SDS011;27656;53.068;8.818;2023-06-10T14:21:03;6.13;;;3.22;;
41966;SDS011;27656;53.068;8.818;2023-06-10T14:23:29;6.60;;;3.78;;
41966;SDS011;27656;53.068;8.818;2023-06-10T14:25:56;8.25;;;3.88;;
41966;SDS011;27656;53.068;8.818;2023-06-10T14:28:23;7.78;;;3.63;;
41966;SDS011;27656;53.068;8.818;2023-06-10T14:30:50;8.40;;;3.60;;
41966;SDS011;27656;53.068;8.818;2023-06-10T14:33:16;7.20;;;3.60;;
41966;SDS011;27656;53.068;8.818;2023-06-10T14:35:43;6.05;;;4.07;;
41966;SDS011;27656;53.068;8.818;2023-06-10T14:38:10;7.50;;;3.70;;
41966;SDS011;27656;53.068;8.818;2023-06-10T14:40:37;7.35;;;4.10;;
41966;SDS011;27656;53.068;8.818;2023-06-10T14:43:03;6.70;;;3.80;;
41966;SDS011;27656;53.068;8.818;2023-06-10T14:45:36;7.68;;;3.58;;
41966;SDS011;27656;53.068;8.818;2023-06-10T14:48:03;7.35;;;3.60;;
41966;SDS011;27656;53.068;8.818;2023-06-10T14:50:30;6.07;;;3.75;;
41966;SDS011;27656;53.068;8.818;2023-06-10T14:52:58;10.20;;;4.05;;
41966;SDS011;27656;53.068;8.818;2023-06-10T14:55:25;9.95;;;3.88;;